Time;durP1;ratioP1;P1;durP2;ratioP2;P2;SDS_P1;SDS_P2;PMS_P1;PMS_P2;Temp;Humidity;BMP_temperature;BMP_pressure;BME280_temperature;BME280_humidity;BME280_pressure;Samples;Min_cycle;Max_cycle;Signal;HPM_P1;HPM_P2
2022/12/10 07:20:30;;;;;;;8.43;3.13;;;;;;;;;;5146140;23;20576;-59
2022/12/10 07:22:56;;;;;;;10.23;3.20;;;;;;;;;;4973615;28;20461;-58
2022/12/10 07:25:22;;;;;;;11.63;3.60;;;;;;;;;;4973548;28;20054;-58
2022/12/10 07:27:48;;;;;;;6.47;2.95;;;;;;;;;;4973965;28;20050;-57
2022/12/10 07:30:23;;;;;;;6.68;3.50;;;;;;;;;;4971646;28;20105;-58
2022/12/10 07:32:49;;;;;;;14.50;4.00;;;;;;;;;;4973508;28;20018;-59
2022/12/10 07:35:15;;;;;;;9.48;3.33;;;;;;;;;;4973664;28;20023;-63
2022/12/10 07:37:41;;;;;;;14.85;3.53;;;;;;;;;;4973403;28;20026;-61
2022/12/10 07:40:07;;;;;;;13.63;4.00;;;;;;;;;;4955524;28;20035;-60
2022/12/10 07:42:33;;;;;;;12.43;4.28;;;;;;;;;;4972821;28;20501;-58
2022/12/10 07:44:59;;;;;;;8.43;3.28;;;;;;;;;;4973189;28;20015;-59
2022/12/10 07:47:25;;;;;;;12.75;4.43;;;;;;;;;;4973009;28;20050;-58
2022/12/10 07:49:52;;;;;;;11.43;4.07;;;;;;;;;;4973100;28;20027;-58
2022/12/10 07:52:18;;;;;;;12.52;4.97;;;;;;;;;;4973135;28;20026;-60
2022/12/10 07:54:44;;;;;;;16.75;5.22;;;;;;;;;;4971775;28;20157;-61
2022/12/10 07:57:10;;;;;;;11.23;4.60;;;;;;;;;;4973099;28;20031;-58
2022/12/10 07:59:36;;;;;;;22.85;7.82;;;;;;;;;;4955123;28;20466;-58
2022/12/10 08:02:02;;;;;;;14.88;6.03;;;;;;;;;;4972784;28;20525;-58
2022/12/10 08:04:29;;;;;;;16.17;5.78;;;;;;;;;;4972315;28;20034;-59
2022/12/10 08:06:55;;;;;;;13.95;6.68;;;;;;;;;;4963672;28;20030;-62
2022/12/10 08:09:21;;;;;;;17.13;5.72;;;;;;;;;;4961692;28;20050;-62
2022/12/10 08:11:48;;;;;;;14.27;5.18;;;;;;;;;;4960472;28;20098;-62
2022/12/10 08:14:14;;;;;;;14.23;6.47;;;;;;;;;;4952580;29;20033;-58
2022/12/10 08:16:40;;;;;;;13.95;5.80;;;;;;;;;;4935422;29;20126;-58
2022/12/10 08:19:06;;;;;;;13.90;5.32;;;;;;;;;;4948609;29;20134;-64
2022/12/10 08:21:32;;;;;;;17.73;5.80;;;;;;;;;;4935981;29;20371;-59
2022/12/10 08:24:00;;;;;;;14.05;6.38;;;;;;;;;;4942395;29;20138;-59
2022/12/10 08:26:27;;;;;;;16.85;6.53;;;;;;;;;;4942532;29;20030;-58
2022/12/10 08:28:54;;;;;;;17.27;4.88;;;;;;;;;;4942010;29;20550;-63
2022/12/10 08:31:20;;;;;;;12.18;4.80;;;;;;;;;;4943127;29;20063;-58
2022/12/10 08:33:46;;;;;;;13.10;5.18;;;;;;;;;;4949297;29;20031;-59
2022/12/10 08:36:13;;;;;;;13.18;5.45;;;;;;;;;;4942614;29;20519;-59
2022/12/10 08:38:40;;;;;;;14.25;5.78;;;;;;;;;;4939514;29;20407;-58
2022/12/10 08:41:08;;;;;;;16.88;6.25;;;;;;;;;;4933330;29;20490;-58
2022/12/10 08:43:35;;;;;;;20.40;5.95;;;;;;;;;;4937798;29;20047;-59
2022/12/10 08:46:01;;;;;;;16.83;6.35;;;;;;;;;;4933487;29;20028;-60
2022/12/10 08:48:27;;;;;;;14.50;5.43;;;;;;;;;;4933129;29;20040;-59
2022/12/10 08:50:53;;;;;;;10.32;5.00;;;;;;;;;;4932993;29;20130;-63
2022/12/10 08:53:19;;;;;;;13.73;4.85;;;;;;;;;;4936257;29;20419;-63
2022/12/10 08:55:45;;;;;;;15.13;5.63;;;;;;;;;;4946028;29;20478;-61
2022/12/10 08:58:11;;;;;;;13.95;5.07;;;;;;;;;;4942074;29;20035;-63
2022/12/10 09:00:37;;;;;;;20.08;4.88;;;;;;;;;;4944348;29;20055;-60
2022/12/10 09:03:04;;;;;;;13.27;5.10;;;;;;;;;;4941290;29;20067;-60
2022/12/10 09:05:30;;;;;;;13.45;5.10;;;;;;;;;;4941694;29;20049;-60
2022/12/10 09:07:56;;;;;;;15.98;5.53;;;;;;;;;;4949343;29;20086;-65
2022/12/10 09:10:23;;;;;;;14.85;5.07;;;;;;;;;;4947640;29;20028;-62
2022/12/10 09:12:49;;;;;;;14.95;5.38;;;;;;;;;;4949295;28;20038;-62
2022/12/10 09:15:15;;;;;;;15.48;4.75;;;;;;;;;;4946803;29;20057;-58
2022/12/10 09:17:41;;;;;;;15.32;5.88;;;;;;;;;;4955012;29;20054;-58
2022/12/10 09:20:07;;;;;;;12.90;5.03;;;;;;;;;;4946346;28;20051;-59
2022/12/10 09:22:36;;;;;;;13.27;5.43;;;;;;;;;;4931021;29;20444;-59
2022/12/10 09:25:03;;;;;;;17.10;5.80;;;;;;;;;;4955068;29;20019;-59
2022/12/10 09:27:30;;;;;;;16.35;5.05;;;;;;;;;;4954694;28;20020;-59
2022/12/10 09:29:56;;;;;;;14.63;6.13;;;;;;;;;;4946653;29;20055;-63
2022/12/10 09:32:22;;;;;;;16.67;6.35;;;;;;;;;;4947041;28;20470;-61
2022/12/10 09:34:51;;;;;;;14.43;5.40;;;;;;;;;;4948219;28;20106;-65
2022/12/10 09:37:17;;;;;;;13.10;5.00;;;;;;;;;;4945397;29;20024;-57
2022/12/10 09:39:43;;;;;;;51.72;23.08;;;;;;;;;;4942365;29;20039;-59
2022/12/10 09:42:18;;;;;;;21.38;8.80;;;;;;;;;;4945599;29;20534;-61
2022/12/10 09:44:44;;;;;;;22.75;9.00;;;;;;;;;;4949136;28;20034;-58
2022/12/10 09:47:11;;;;;;;13.07;4.85;;;;;;;;;;4941513;29;20020;-58
2022/12/10 09:49:56;;;;;;;12.00;5.05;;;;;;;;;;4946472;28;20038;-62
2022/12/10 09:52:23;;;;;;;19.95;5.88;;;;;;;;;;4951787;29;20057;-61
2022/12/10 09:54:49;;;;;;;19.05;6.70;;;;;;;;;;4950428;29;20546;-58
2022/12/10 09:57:20;;;;;;;14.57;6.35;;;;;;;;;;4938727;29;20031;-61
2022/12/10 09:59:48;;;;;;;18.50;7.22;;;;;;;;;;4939605;29;20035;-57
2022/12/10 10:02:17;;;;;;;17.75;7.00;;;;;;;;;;4938656;29;20047;-59
2022/12/10 10:04:43;;;;;;;22.27;8.00;;;;;;;;;;4941618;29;20059;-59
2022/12/10 10:07:16;;;;;;;16.05;6.68;;;;;;;;;;4946382;29;20058;-64
2022/12/10 10:09:42;;;;;;;15.80;6.78;;;;;;;;;;4943686;29;20476;-59
2022/12/10 10:12:12;;;;;;;15.75;6.13;;;;;;;;;;4938882;29;20036;-58
2022/12/10 10:14:38;;;;;;;18.30;7.32;;;;;;;;;;4938994;29;20059;-60
2022/12/10 10:17:10;;;;;;;19.35;7.18;;;;;;;;;;4938637;29;20031;-60
2022/12/10 10:19:38;;;;;;;15.27;7.00;;;;;;;;;;4948544;29;20407;-60
2022/12/10 10:22:05;;;;;;;21.73;7.65;;;;;;;;;;4944656;29;20046;-67
2022/12/10 10:24:35;;;;;;;18.92;7.65;;;;;;;;;;4937242;29;20126;-60
2022/12/10 10:27:17;;;;;;;16.88;7.65;;;;;;;;;;4949110;29;20031;-63
2022/12/10 10:29:47;;;;;;;17.08;4.38;;;;;;;;;;4936315;29;20472;-63
2022/12/10 10:32:25;;;;;;;22.77;7.82;;;;;;;;;;4936501;29;20035;-59
2022/12/10 10:34:55;;;;;;;20.52;9.23;;;;;;;;;;4943512;29;20103;-61
2022/12/10 10:37:22;;;;;;;14.82;5.75;;;;;;;;;;4944502;29;20027;-59
2022/12/10 10:39:49;;;;;;;16.80;6.68;;;;;;;;;;4945134;29;20031;-60
2022/12/10 10:42:22;;;;;;;19.50;6.93;;;;;;;;;;4943647;29;20396;-60
2022/12/10 10:44:48;;;;;;;16.70;6.95;;;;;;;;;;4943082;29;20042;-59
2022/12/10 10:47:29;;;;;;;21.25;9.93;;;;;;;;;;4945075;29;20027;-59
2022/12/10 10:49:55;;;;;;;15.10;6.63;;;;;;;;;;4951753;29;20045;-61
2022/12/10 10:52:21;;;;;;;16.35;6.68;;;;;;;;;;4952034;29;20066;-64
2022/12/10 10:54:48;;;;;;;14.65;5.45;;;;;;;;;;4936493;29;20510;-59
2022/12/10 10:57:26;;;;;;;16.58;5.32;;;;;;;;;;4948226;29;20387;-60
2022/12/10 10:59:54;;;;;;;21.13;9.10;;;;;;;;;;4952777;29;20036;-59
2022/12/10 11:02:29;;;;;;;15.48;6.38;;;;;;;;;;4954452;29;20034;-58
2022/12/10 11:04:58;;;;;;;15.20;5.78;;;;;;;;;;4954634;29;20035;-60
2022/12/10 11:07:34;;;;;;;20.48;7.88;;;;;;;;;;4954642;29;20101;-60
2022/12/10 11:10:00;;;;;;;12.57;5.10;;;;;;;;;;4954588;29;20035;-64
2022/12/10 11:12:38;;;;;;;11.77;4.88;;;;;;;;;;4954566;29;20454;-59
2022/12/10 11:15:27;;;;;;;11.68;5.80;;;;;;;;;;4954452;29;20031;-59
2022/12/10 11:17:54;;;;;;;22.30;9.52;;;;;;;;;;4941992;29;20506;-59
2022/12/10 11:20:21;;;;;;;11.88;5.60;;;;;;;;;;4950560;28;20044;-60
2022/12/10 11:23:00;;;;;;;19.25;7.78;;;;;;;;;;4942257;29;20043;-60
2022/12/10 11:25:32;;;;;;;32.50;14.30;;;;;;;;;;4939999;29;20082;-60
2022/12/10 11:28:19;;;;;;;12.70;5.55;;;;;;;;;;4943422;29;20066;-62
2022/12/10 11:30:53;;;;;;;23.02;8.65;;;;;;;;;;4945996;29;20031;-64
2022/12/10 11:33:35;;;;;;;12.63;6.05;;;;;;;;;;4942154;29;20585;-60
2022/12/10 11:36:20;;;;;;;15.20;6.47;;;;;;;;;;4943944;29;20027;-60
2022/12/10 11:38:46;;;;;;;13.80;4.82;;;;;;;;;;4943807;29;20094;-60
2022/12/10 11:41:12;;;;;;;15.48;6.15;;;;;;;;;;4943568;29;20023;-64
2022/12/10 11:44:16;;;;;;;14.93;5.30;;;;;;;;;;4942419;29;20032;-60
2022/12/10 11:46:54;;;;;;;19.50;5.72;;;;;;;;;;4864933;29;20093;-59
2022/12/10 11:49:29;;;;;;;15.20;5.72;;;;;;;;;;4864005;29;20044;-59
2022/12/10 11:52:02;;;;;;;14.27;5.70;;;;;;;;;;4866689;29;20037;-63
2022/12/10 11:54:47;;;;;;;13.35;5.60;;;;;;;;;;4875470;29;20029;-64
2022/12/10 11:57:19;;;;;;;13.05;5.70;;;;;;;;;;4879786;29;20523;-58
2022/12/10 12:00:00;;;;;;;15.73;5.75;;;;;;;;;;4872766;29;20043;-59
2022/12/10 12:02:44;;;;;;;13.48;5.80;;;;;;;;;;4875155;29;20433;-59
2022/12/10 12:05:10;;;;;;;13.48;6.25;;;;;;;;;;4861792;29;20041;-59
2022/12/10 12:07:40;;;;;;;14.07;5.60;;;;;;;;;;4873962;29;20362;-60
2022/12/10 12:10:09;;;;;;;12.70;5.32;;;;;;;;;;4874926;29;20549;-60
2022/12/10 12:12:53;;;;;;;15.32;5.43;;;;;;;;;;4875131;29;20111;-58
2022/12/10 12:15:19;;;;;;;18.08;5.68;;;;;;;;;;4874999;29;20029;-60
2022/12/10 12:17:49;;;;;;;14.32;5.20;;;;;;;;;;4923538;29;20618;-59
2022/12/10 12:20:26;;;;;;;14.32;5.32;;;;;;;;;;4952150;28;20059;-66
2022/12/10 12:22:55;;;;;;;16.60;5.82;;;;;;;;;;4936888;29;20562;-60
2022/12/10 12:25:34;;;;;;;14.27;5.65;;;;;;;;;;4945384;29;20035;-62
2022/12/10 12:28:05;;;;;;;17.08;6.25;;;;;;;;;;4924033;29;20055;-60
2022/12/10 12:30:33;;;;;;;14.85;5.07;;;;;;;;;;4945923;29;20019;-61
2022/12/10 12:33:13;;;;;;;11.13;4.53;;;;;;;;;;4937371;29;20451;-60
2022/12/10 12:35:42;;;;;;;13.02;4.50;;;;;;;;;;4942838;29;20379;-65
2022/12/10 12:38:28;;;;;;;16.45;4.75;;;;;;;;;;4946066;29;20110;-60
2022/12/10 12:41:27;;;;;;;13.65;5.57;;;;;;;;;;4920840;29;20024;-60
2022/12/10 12:44:01;;;;;;;14.52;4.70;;;;;;;;;;4841668;29;20103;-60
2022/12/10 12:46:30;;;;;;;12.88;5.05;;;;;;;;;;4828166;29;20047;-60
2022/12/10 12:49:06;;;;;;;13.75;5.55;;;;;;;;;;4851569;29;20068;-60
2022/12/10 12:51:34;;;;;;;13.73;5.47;;;;;;;;;;4845594;29;20589;-61
2022/12/10 12:54:00;;;;;;;10.05;4.88;;;;;;;;;;4843995;29;20045;-63
2022/12/10 12:56:29;;;;;;;12.95;4.88;;;;;;;;;;4852138;29;20371;-62
2022/12/10 12:59:12;;;;;;;11.32;4.72;;;;;;;;;;4831520;29;20038;-59
2022/12/10 13:01:44;;;;;;;14.90;4.97;;;;;;;;;;4845015;29;20045;-60
2022/12/10 13:04:11;;;;;;;13.52;4.70;;;;;;;;;;4842211;29;20046;-66
2022/12/10 13:06:38;;;;;;;13.02;5.15;;;;;;;;;;4851901;29;20525;-58
2022/12/10 13:09:14;;;;;;;11.82;4.55;;;;;;;;;;4841699;29;20045;-61
2022/12/10 13:11:41;;;;;;;14.98;4.40;;;;;;;;;;4846108;29;20483;-59
2022/12/10 13:14:09;;;;;;;16.92;5.00;;;;;;;;;;4838056;29;20037;-60
2022/12/10 13:16:40;;;;;;;11.10;4.13;;;;;;;;;;4824587;29;20052;-60
2022/12/10 13:19:21;;;;;;;9.80;4.60;;;;;;;;;;4858070;29;20075;-64
2022/12/10 13:21:56;;;;;;;15.00;4.95;;;;;;;;;;4940389;29;20035;-61
2022/12/10 13:24:43;;;;;;;11.70;5.03;;;;;;;;;;4938201;29;20039;-63
2022/12/10 13:27:14;;;;;;;9.77;4.25;;;;;;;;;;4942554;29;20444;-61
2022/12/10 13:29:46;;;;;;;11.07;5.50;;;;;;;;;;4936950;29;20066;-57
2022/12/10 13:32:12;;;;;;;;;;;;;;;;;;4945008;29;20578;-58
2022/12/10 13:34:38;;;;;;;15.73;4.53;;;;;;;;;;4952375;29;19907;-58
2022/12/10 13:37:24;;;;;;;14.93;5.25;;;;;;;;;;4948400;29;20044;-60
2022/12/10 13:39:54;;;;;;;17.90;5.57;;;;;;;;;;4932961;29;20395;-57
2022/12/10 13:45:07;;;;;;;14.77;4.78;;;;;;;;;;4942406;29;20081;-58
2022/12/10 13:47:52;;;;;;;14.60;4.75;;;;;;;;;;4952165;29;20034;-61
2022/12/10 13:50:25;;;;;;;11.30;4.97;;;;;;;;;;4935888;29;20067;-58
2022/12/10 13:53:03;;;;;;;13.65;4.93;;;;;;;;;;4949522;28;20317;-58
2022/12/10 13:55:29;;;;;;;15.02;5.13;;;;;;;;;;4952715;29;20494;-64
2022/12/10 13:58:14;;;;;;;12.20;5.05;;;;;;;;;;4950069;29;20038;-58
2022/12/10 14:00:41;;;;;;;11.75;4.63;;;;;;;;;;4955688;29;20121;-59
2022/12/10 14:03:10;;;;;;;15.40;4.72;;;;;;;;;;4955399;29;20407;-62
2022/12/10 14:05:42;;;;;;;17.13;5.13;;;;;;;;;;4943873;29;20031;-61
2022/12/10 14:08:08;;;;;;;;;;;;;;;;;;4946374;29;20099;-64
2022/12/10 14:10:35;;;;;;;15.93;4.70;;;;;;;;;;4945503;29;19914;-57
2022/12/10 14:13:05;;;;;;;13.05;5.75;;;;;;;;;;4936067;29;20028;-59
2022/12/10 14:15:32;;;;;;;15.65;5.88;;;;;;;;;;4936740;29;20038;-57
2022/12/10 14:18:03;;;;;;;16.05;5.82;;;;;;;;;;4936554;29;20063;-60
2022/12/10 14:20:31;;;;;;;14.13;5.40;;;;;;;;;;4935533;29;20558;-65
2022/12/10 14:23:32;;;;;;;15.32;5.28;;;;;;;;;;4936028;29;20108;-64
2022/12/10 14:25:47;;;;;;;15.48;5.40;;;;;;;;;;4935644;29;20039;-59
2022/12/10 14:28:17;;;;;;;15.68;5.63;;;;;;;;;;4941744;29;20039;-66
2022/12/10 14:30:44;;;;;;;15.35;5.53;;;;;;;;;;4943790;29;20111;-69
2022/12/10 14:33:13;;;;;;;16.88;7.88;;;;;;;;;;4944721;29;20023;-65
2022/12/10 14:35:39;;;;;;;16.88;6.18;;;;;;;;;;4945198;29;20023;-57
2022/12/10 14:38:05;;;;;;;14.30;5.65;;;;;;;;;;4943205;29;20407;-59
2022/12/10 14:40:40;;;;;;;15.27;5.38;;;;;;;;;;4944866;29;20498;-64
2022/12/10 14:43:14;;;;;;;17.77;5.65;;;;;;;;;;4945904;29;20044;-63
2022/12/10 14:45:48;;;;;;;21.92;5.80;;;;;;;;;;4946347;29;20087;-64
2022/12/10 14:48:16;;;;;;;17.30;5.68;;;;;;;;;;4945752;29;20027;-57
2022/12/10 14:50:42;;;;;;;16.77;6.03;;;;;;;;;;4945169;29;20028;-56
2022/12/10 14:53:24;;;;;;;24.63;6.07;;;;;;;;;;4943731;29;20376;-57
2022/12/10 14:55:53;;;;;;;16.77;6.40;;;;;;;;;;4943256;28;20031;-58
2022/12/10 14:58:30;;;;;;;18.85;5.82;;;;;;;;;;4942197;29;20265;-57
2022/12/10 15:00:57;;;;;;;24.08;6.22;;;;;;;;;;4945703;29;20050;-68
2022/12/10 15:03:27;;;;;;;16.83;5.43;;;;;;;;;;4943616;28;20050;-57
2022/12/10 15:05:55;;;;;;;16.83;5.53;;;;;;;;;;4945177;29;20030;-62
2022/12/10 15:08:21;;;;;;;22.80;7.25;;;;;;;;;;4942825;29;20115;-56
2022/12/10 15:10:51;;;;;;;18.45;6.25;;;;;;;;;;4946037;29;20053;-56
2022/12/10 15:13:39;;;;;;;20.15;6.03;;;;;;;;;;4941586;29;20034;-57
2022/12/10 15:16:05;;;;;;;20.65;5.65;;;;;;;;;;4945899;29;20074;-57
2022/12/10 15:18:38;;;;;;;22.10;5.80;;;;;;;;;;4954323;29;20109;-57
2022/12/10 15:21:10;;;;;;;18.58;5.72;;;;;;;;;;4953887;28;20055;-66
2022/12/10 15:23:36;;;;;;;;;;;;;;;;;;4954484;29;20043;-67
2022/12/10 15:26:12;;;;;;;21.00;6.65;;;;;;;;;;4954319;29;20003;-59
2022/12/10 15:28:39;;;;;;;21.83;7.10;;;;;;;;;;4954522;29;20031;-58
2022/12/10 15:31:11;;;;;;;18.52;6.90;;;;;;;;;;4953796;29;20028;-58
2022/12/10 15:33:37;;;;;;;;;;;;;;;;;;4954933;29;20027;-57
2022/12/10 15:36:04;;;;;;;19.42;5.70;;;;;;;;;;4953767;29;19933;-58
2022/12/10 15:38:30;;;;;;;19.85;6.28;;;;;;;;;;4954232;29;20055;-58
2022/12/10 15:41:00;;;;;;;23.55;6.85;;;;;;;;;;4940702;29;20391;-61
2022/12/10 15:43:29;;;;;;;27.92;7.13;;;;;;;;;;4938326;29;20039;-59
2022/12/10 15:45:55;;;;;;;16.55;6.68;;;;;;;;;;4936056;29;20426;-58
2022/12/10 15:48:23;;;;;;;22.58;6.88;;;;;;;;;;4952520;29;20049;-61
2022/12/10 15:50:50;;;;;;;20.80;6.30;;;;;;;;;;4954005;29;20035;-58
2022/12/10 15:53:25;;;;;;;22.58;6.18;;;;;;;;;;4953597;29;20391;-58
2022/12/10 15:55:51;;;;;;;17.20;6.10;;;;;;;;;;4953807;29;20024;-58
2022/12/10 15:58:17;;;;;;;19.77;6.50;;;;;;;;;;4953686;29;20027;-58
2022/12/10 16:00:46;;;;;;;19.67;6.55;;;;;;;;;;4954045;29;20034;-61
2022/12/10 16:03:13;;;;;;;22.92;6.63;;;;;;;;;;4953533;29;20043;-57
2022/12/10 16:05:39;;;;;;;25.00;6.47;;;;;;;;;;4953552;29;20039;-58
2022/12/10 16:08:22;;;;;;;22.52;7.13;;;;;;;;;;4939468;29;20027;-66
2022/12/10 16:10:50;;;;;;;52.30;19.83;;;;;;;;;;4943839;29;20383;-63
2022/12/10 16:13:18;;;;;;;46.42;19.98;;;;;;;;;;4942656;29;20023;-62
2022/12/10 16:15:46;;;;;;;17.52;6.63;;;;;;;;;;4943284;28;20027;-65
2022/12/10 16:18:12;;;;;;;20.15;6.15;;;;;;;;;;4943285;29;20055;-57
2022/12/10 16:20:38;;;;;;;20.05;6.15;;;;;;;;;;4943896;28;20059;-63
2022/12/10 16:23:05;;;;;;;18.48;5.85;;;;;;;;;;4941902;29;20039;-66
2022/12/10 16:25:35;;;;;;;20.42;5.93;;;;;;;;;;4947303;29;20027;-57
2022/12/10 16:28:02;;;;;;;21.85;6.18;;;;;;;;;;4953688;29;20106;-59
2022/12/10 16:30:28;;;;;;;16.10;5.95;;;;;;;;;;4943925;29;20091;-68
2022/12/10 16:32:55;;;;;;;20.20;6.28;;;;;;;;;;4946895;29;20059;-56
2022/12/10 16:35:21;;;;;;;17.40;5.97;;;;;;;;;;4953218;29;20066;-64
2022/12/10 16:37:54;;;;;;;18.40;6.22;;;;;;;;;;4953046;29;20035;-58
2022/12/10 16:40:20;;;;;;;22.88;6.03;;;;;;;;;;4952646;29;20023;-59
2022/12/10 16:42:48;;;;;;;20.83;5.97;;;;;;;;;;4953045;29;20122;-58
2022/12/10 16:45:19;;;;;;;19.90;5.50;;;;;;;;;;4953240;29;20030;-60
2022/12/10 16:47:45;;;;;;;23.23;6.10;;;;;;;;;;4953360;29;20058;-61
2022/12/10 16:50:12;;;;;;;17.73;6.25;;;;;;;;;;4952677;29;20059;-58
2022/12/10 16:52:38;;;;;;;21.45;6.10;;;;;;;;;;4952875;29;20041;-58
2022/12/10 16:55:04;;;;;;;18.40;5.90;;;;;;;;;;4952698;29;20062;-58
2022/12/10 16:57:31;;;;;;;17.15;5.68;;;;;;;;;;4952495;29;20039;-57
2022/12/10 16:59:57;;;;;;;15.30;5.93;;;;;;;;;;4952786;29;20467;-62
2022/12/10 17:02:23;;;;;;;17.00;6.22;;;;;;;;;;4934711;29;20043;-59
2022/12/10 17:04:49;;;;;;;22.90;6.13;;;;;;;;;;4952656;29;20030;-64
2022/12/10 17:07:15;;;;;;;20.77;6.13;;;;;;;;;;4952002;29;20031;-60
2022/12/10 17:09:42;;;;;;;18.52;6.15;;;;;;;;;;4952334;29;20034;-57
2022/12/10 17:12:08;;;;;;;23.17;6.43;;;;;;;;;;4953042;29;20513;-62
2022/12/10 17:14:39;;;;;;;19.63;6.80;;;;;;;;;;4952686;29;20039;-58
2022/12/10 17:17:06;;;;;;;20.42;6.70;;;;;;;;;;4952876;29;20031;-57
2022/12/10 17:19:36;;;;;;;25.30;6.45;;;;;;;;;;4952407;28;20067;-64
2022/12/10 17:22:03;;;;;;;19.85;5.65;;;;;;;;;;4952735;29;20082;-59
2022/12/10 17:24:29;;;;;;;17.13;6.10;;;;;;;;;;4952487;29;20106;-56
2022/12/10 17:26:56;;;;;;;24.10;7.25;;;;;;;;;;4953241;28;20027;-62
2022/12/10 17:29:27;;;;;;;16.55;6.20;;;;;;;;;;4956599;29;20038;-58
2022/12/10 17:31:53;;;;;;;20.33;6.07;;;;;;;;;;4956604;29;20114;-65
2022/12/10 17:34:20;;;;;;;23.90;6.78;;;;;;;;;;4956407;29;20082;-58
2022/12/10 17:36:47;;;;;;;21.33;6.25;;;;;;;;;;4956554;29;20364;-56
2022/12/10 17:39:14;;;;;;;19.23;5.75;;;;;;;;;;4955869;29;20027;-57
2022/12/10 17:41:40;;;;;;;18.67;6.60;;;;;;;;;;4938689;29;20039;-57
2022/12/10 17:44:06;;;;;;;18.17;6.75;;;;;;;;;;4956208;29;20071;-57
2022/12/10 17:46:33;;;;;;;21.40;7.30;;;;;;;;;;4956483;29;20027;-58
2022/12/10 17:49:00;;;;;;;17.38;6.28;;;;;;;;;;4955886;29;20466;-58
2022/12/10 17:51:26;;;;;;;13.65;6.38;;;;;;;;;;4956192;29;20049;-61
2022/12/10 17:53:52;;;;;;;20.92;6.22;;;;;;;;;;4955888;29;20031;-56
2022/12/10 17:56:20;;;;;;;17.52;5.50;;;;;;;;;;4956176;29;20500;-57
2022/12/10 17:58:46;;;;;;;28.45;7.05;;;;;;;;;;4955886;29;20070;-57
2022/12/10 18:01:13;;;;;;;19.17;5.38;;;;;;;;;;4955848;29;20039;-59
2022/12/10 18:03:39;;;;;;;20.33;5.55;;;;;;;;;;4955923;29;20039;-57
2022/12/10 18:06:13;;;;;;;16.95;6.55;;;;;;;;;;4955953;29;20023;-57
2022/12/10 18:08:39;;;;;;;19.65;7.38;;;;;;;;;;4955767;29;20042;-57
2022/12/10 18:11:05;;;;;;;15.32;6.50;;;;;;;;;;4955784;29;20040;-59
2022/12/10 18:13:31;;;;;;;15.02;6.88;;;;;;;;;;4955516;29;20029;-56
2022/12/10 18:15:57;;;;;;;18.98;6.45;;;;;;;;;;4955595;29;20035;-56
2022/12/10 18:18:23;;;;;;;17.55;6.30;;;;;;;;;;4955659;29;20748;-56
2022/12/10 18:20:49;;;;;;;13.90;6.35;;;;;;;;;;4954892;28;20052;-56
2022/12/10 18:23:16;;;;;;;13.52;6.20;;;;;;;;;;4955087;29;20154;-57
2022/12/10 18:25:43;;;;;;;14.23;6.05;;;;;;;;;;4955413;29;20028;-55
2022/12/10 18:28:21;;;;;;;15.85;5.88;;;;;;;;;;4955464;29;20583;-56
2022/12/10 18:30:47;;;;;;;12.73;6.20;;;;;;;;;;4955261;29;20054;-58
2022/12/10 18:33:14;;;;;;;16.70;6.78;;;;;;;;;;4955467;29;20416;-55
2022/12/10 18:35:40;;;;;;;13.60;6.78;;;;;;;;;;4955089;29;20054;-58
2022/12/10 18:38:06;;;;;;;16.48;5.97;;;;;;;;;;4954643;28;20063;-57
2022/12/10 18:40:32;;;;;;;12.02;6.13;;;;;;;;;;4954521;29;20034;-63
2022/12/10 18:42:58;;;;;;;14.23;6.88;;;;;;;;;;4954747;29;20039;-56
2022/12/10 18:45:24;;;;;;;14.48;6.80;;;;;;;;;;4954487;29;20041;-57
2022/12/10 18:47:50;;;;;;;15.50;6.93;;;;;;;;;;4955105;29;20551;-59
2022/12/10 18:50:19;;;;;;;18.65;6.72;;;;;;;;;;4954794;29;20062;-56
2022/12/10 18:52:45;;;;;;;14.88;6.22;;;;;;;;;;4954739;29;20106;-58
2022/12/10 18:55:11;;;;;;;12.93;6.20;;;;;;;;;;4954784;29;20101;-65
2022/12/10 18:57:37;;;;;;;10.35;5.78;;;;;;;;;;4954712;29;20046;-57
2022/12/10 19:00:04;;;;;;;15.98;6.47;;;;;;;;;;4954719;29;20472;-57
2022/12/10 19:02:30;;;;;;;13.52;5.85;;;;;;;;;;4954502;29;20043;-57
2022/12/10 19:04:56;;;;;;;12.52;6.03;;;;;;;;;;4954518;29;20110;-57
2022/12/10 19:07:22;;;;;;;13.15;5.50;;;;;;;;;;4954310;29;20043;-56
2022/12/10 19:09:51;;;;;;;16.13;6.63;;;;;;;;;;4953999;29;20113;-55
2022/12/10 19:12:17;;;;;;;10.82;5.57;;;;;;;;;;4954050;29;20482;-56
2022/12/10 19:14:43;;;;;;;15.05;5.90;;;;;;;;;;4954097;29;20054;-56
2022/12/10 19:17:10;;;;;;;12.13;5.78;;;;;;;;;;4951390;29;20035;-56
2022/12/10 19:19:36;;;;;;;13.77;6.10;;;;;;;;;;4954278;28;20440;-57
2022/12/10 19:22:02;;;;;;;14.00;6.50;;;;;;;;;;4954142;29;20035;-57
2022/12/10 19:24:29;;;;;;;15.27;6.70;;;;;;;;;;4953908;29;20510;-57
2022/12/10 19:26:55;;;;;;;11.23;5.82;;;;;;;;;;4952576;29;20039;-59
2022/12/10 19:29:21;;;;;;;12.90;6.50;;;;;;;;;;4952237;29;20035;-62
2022/12/10 19:31:49;;;;;;;14.20;6.60;;;;;;;;;;4954330;29;20031;-58
2022/12/10 19:34:16;;;;;;;16.08;7.70;;;;;;;;;;4954588;29;20479;-58
2022/12/10 19:36:43;;;;;;;14.07;6.82;;;;;;;;;;4953569;29;20551;-58
2022/12/10 19:39:35;;;;;;;17.02;7.72;;;;;;;;;;4954057;29;20027;-59
2022/12/10 19:42:01;;;;;;;17.42;7.68;;;;;;;;;;4950546;29;20071;-58
2022/12/10 19:44:27;;;;;;;13.88;6.68;;;;;;;;;;4953431;29;20031;-57
2022/12/10 19:46:53;;;;;;;16.95;7.60;;;;;;;;;;4953876;29;20027;-58
2022/12/10 19:49:20;;;;;;;20.58;7.88;;;;;;;;;;4953836;29;20134;-59
2022/12/10 19:51:46;;;;;;;13.80;7.50;;;;;;;;;;4953571;28;20463;-58
2022/12/10 19:54:12;;;;;;;16.60;8.05;;;;;;;;;;4953351;29;20031;-58
2022/12/10 19:56:39;;;;;;;19.40;9.50;;;;;;;;;;4953440;29;20027;-58
2022/12/10 19:59:13;;;;;;;16.77;9.93;;;;;;;;;;4953609;29;20622;-59
2022/12/10 20:01:39;;;;;;;19.83;9.73;;;;;;;;;;4936415;29;20470;-58
2022/12/10 20:04:05;;;;;;;18.73;10.55;;;;;;;;;;4953181;29;20059;-58
2022/12/10 20:06:34;;;;;;;20.08;10.57;;;;;;;;;;4953378;29;20027;-58
2022/12/10 20:09:01;;;;;;;19.08;10.65;;;;;;;;;;4953327;29;20034;-58
2022/12/10 20:11:27;;;;;;;23.65;11.93;;;;;;;;;;4953453;29;20082;-66
2022/12/10 20:13:54;;;;;;;21.13;11.43;;;;;;;;;;4953292;29;20020;-65
2022/12/10 20:16:27;;;;;;;20.10;11.30;;;;;;;;;;4953109;29;20463;-61
2022/12/10 20:18:54;;;;;;;18.42;11.00;;;;;;;;;;4950927;28;20086;-59
2022/12/10 20:21:20;;;;;;;18.48;10.93;;;;;;;;;;4933847;29;20069;-59
2022/12/10 20:23:46;;;;;;;20.20;11.43;;;;;;;;;;4933951;29;20067;-57
2022/12/10 20:26:21;;;;;;;21.02;11.40;;;;;;;;;;4933874;29;20495;-64
2022/12/10 20:28:47;;;;;;;18.73;11.18;;;;;;;;;;4934109;29;20550;-58
2022/12/10 20:31:13;;;;;;;18.67;11.30;;;;;;;;;;4933397;29;20491;-58
2022/12/10 20:33:39;;;;;;;19.95;11.55;;;;;;;;;;4933369;29;20467;-58
2022/12/10 20:36:06;;;;;;;21.90;11.68;;;;;;;;;;4933383;29;20506;-58
2022/12/10 20:38:32;;;;;;;21.40;11.55;;;;;;;;;;4932652;29;20574;-58
2022/12/10 20:40:58;;;;;;;19.10;11.52;;;;;;;;;;4927043;29;20043;-57
2022/12/10 20:43:24;;;;;;;20.38;11.80;;;;;;;;;;4933052;29;20086;-58
2022/12/10 20:45:50;;;;;;;17.27;11.05;;;;;;;;;;4933232;29;20035;-59
2022/12/10 20:48:16;;;;;;;20.08;11.85;;;;;;;;;;4930566;29;20028;-58
2022/12/10 20:50:42;;;;;;;19.92;11.30;;;;;;;;;;4914256;29;20400;-58
2022/12/10 20:53:08;;;;;;;18.20;11.52;;;;;;;;;;4914336;29;20035;-58
2022/12/10 20:55:35;;;;;;;20.17;11.55;;;;;;;;;;4914230;29;20871;-58
2022/12/10 20:58:01;;;;;;;20.08;11.70;;;;;;;;;;4913846;29;20024;-58
2022/12/10 21:00:27;;;;;;;21.38;11.40;;;;;;;;;;4913902;29;20034;-57
2022/12/10 21:02:53;;;;;;;19.42;11.43;;;;;;;;;;4913572;29;20762;-58
2022/12/10 21:05:20;;;;;;;20.25;11.20;;;;;;;;;;4914397;29;20028;-58
2022/12/10 21:07:46;;;;;;;21.20;11.63;;;;;;;;;;4927796;29;20146;-59
2022/12/10 21:13:02;;;;;;;20.42;11.63;;;;;;;;;;4932670;29;20086;-56
2022/12/10 21:15:28;;;;;;;23.58;12.95;;;;;;;;;;4932727;29;20036;-57
2022/12/10 21:17:54;;;;;;;24.63;12.68;;;;;;;;;;4932276;29;20032;-54
2022/12/10 21:20:20;;;;;;;26.45;13.30;;;;;;;;;;4957063;28;20054;-59
2022/12/10 21:22:46;;;;;;;23.98;13.40;;;;;;;;;;4970951;28;20094;-56
2022/12/10 21:25:13;;;;;;;22.80;12.57;;;;;;;;;;4970865;28;20030;-56
2022/12/10 21:27:39;;;;;;;22.52;12.93;;;;;;;;;;4963441;28;20039;-56
2022/12/10 21:30:06;;;;;;;27.58;14.98;;;;;;;;;;4970775;28;20061;-55
2022/12/10 21:32:32;;;;;;;30.65;16.67;;;;;;;;;;4962316;28;20169;-56
2022/12/10 21:34:58;;;;;;;27.92;14.85;;;;;;;;;;4944620;29;20038;-56
2022/12/10 21:37:24;;;;;;;31.58;17.23;;;;;;;;;;4951540;29;20027;-58
2022/12/10 21:39:50;;;;;;;30.88;16.45;;;;;;;;;;4951139;29;20192;-57
2022/12/10 21:45:01;;;;;;;29.13;16.25;;;;;;;;;;4948323;29;20042;-57
2022/12/10 21:47:27;;;;;;;24.20;14.43;;;;;;;;;;4939424;29;20030;-57
2022/12/10 21:49:53;;;;;;;26.02;14.20;;;;;;;;;;4937344;28;20130;-63
2022/12/10 21:52:19;;;;;;;26.27;14.65;;;;;;;;;;4934287;29;20028;-57
2022/12/10 21:54:45;;;;;;;20.38;13.75;;;;;;;;;;4944514;29;20059;-62
2022/12/10 21:57:11;;;;;;;22.20;13.75;;;;;;;;;;4949373;29;20479;-59
2022/12/10 21:59:37;;;;;;;19.42;12.68;;;;;;;;;;4938936;29;20035;-65
2022/12/10 22:02:03;;;;;;;18.83;11.35;;;;;;;;;;4944817;29;20039;-58
2022/12/10 22:04:30;;;;;;;19.08;12.13;;;;;;;;;;4940599;29;20042;-57
2022/12/10 22:06:56;;;;;;;17.30;11.18;;;;;;;;;;4943121;29;20055;-57